Last 7 Days

Scotts Valley

Hourly Data | America/Los_Angeles
as of 9/1/26 3:50 AM PDT
Date & Time Temp (°F) RH (%) Dew Pt (°F) Wind Dir (°) Wind Spd (mph) Wind Gust (mph) Leaf Wet (mins) BatVolt (V) Latest Rain (In) Daily Rain (In) Daily Min Temp (°F) Daily Max Temp (°F) Daily Max Wind (mph) Daily Leaf Wet (Hrs)
9/1/26 - 0300 47.6 92 45.4 WNW | 288 0.1 1.0 0.0 12.6 0.00 0.00 47.0 52.4 4.6 0.0
9/1/26 - 0200 51.3 87 47.6 NNW | 346 0.3 4.6 0.0 12.6 0.00 0.00 48.2 52.4 4.6 0.0
9/1/26 - 0100 53.0 85 48.5 NW | 318 0.6 5.9 0.0 12.6 0.00 0.00 41.2 85.4 15.2 0.0
9/1/26 - 0000 54.7 82 49.3 W | 281 1.2 7.3 0.0 12.6 0.00 0.00 41.2 85.4 15.2 0.0
8/31/26 - 2300 55.9 78 49.0 W | 271 2.4 8.0 0.0 12.7 0.00 0.00 41.2 85.4 15.2 0.0
8/31/26 - 2200 59.1 70 49.3 W | 267 3.1 9.1 0.0 12.7 0.00 0.00 41.2 85.4 15.2 0.0
8/31/26 - 2100 62.9 62 49.8 WNW | 296 1.8 7.7 0.0 12.8 0.00 0.00 41.2 85.4 15.2 0.0
8/31/26 - 2000 68.2 56 51.8 W | 267 2.5 9.0 0.0 13.0 0.00 0.00 41.2 85.4 15.2 0.0
8/31/26 - 1900 75.2 47 53.3 W | 273 2.8 11.5 0.0 13.2 0.00 0.00 41.2 85.4 15.2 0.0
8/31/26 - 1800 79.3 42 54.1 WSW | 254 3.8 12.1 0.0 13.1 0.00 0.00 41.2 85.4 15.2 0.0
8/31/26 - 1700 81.6 38 53.8 WSW | 237 5.0 15.2 0.0 13.1 0.00 0.00 41.2 85.4 15.2 0.0
8/31/26 - 1600 83.0 34 52.1 SW | 224 5.0 13.5 0.0 13.1 0.00 0.00 41.2 85.4 15.1 0.0
8/31/26 - 1500 83.9 31 50.5 SW | 224 5.2 15.1 0.0 13.1 0.00 0.00 41.2 85.4 15.1 0.0
8/31/26 - 1400 83.9 30 49.2 SSW | 213 4.7 12.8 0.0 13.1 0.00 0.00 41.2 85.3 12.8 0.0
8/31/26 - 1300 83.9 31 50.4 SE | 128 2.8 7.9 0.0 13.0 0.00 0.00 41.2 85.3 7.9 0.0
8/31/26 - 1200 80.1 36 50.7 SSE | 156 2.5 7.0 0.0 13.1 0.00 0.00 41.2 83.0 7.0 0.0
8/31/26 - 1100 76.0 42 51.0 ESE | 121 1.7 5.6 0.0 13.1 0.00 0.00 41.2 79.1 5.8 0.0
8/31/26 - 1000 72.1 49 52.0 SSE | 168 1.6 5.8 0.0 13.2 0.00 0.00 41.2 74.0 5.8 0.0
8/31/26 - 0900 62.9 57 47.3 E | 96 0.2 3.3 0.0 13.4 0.00 0.00 41.2 69.2 3.3 0.0
8/31/26 - 0800 47.1 84 42.2 S | 172 0.0 0.8 0.0 12.8 0.00 0.00 41.2 56.8 1.0 0.0
8/31/26 - 0700 41.5 90 38.8 S | 172 0.1 1.0 0.0 12.5 0.00 0.00 41.2 48.8 1.0 0.0
8/31/26 - 0600 42.5 89 39.4 SSE | 168 0.0 0.9 0.0 12.5 0.00 0.00 42.0 48.8 1.0 0.0
8/31/26 - 0500 43.3 87 39.6 SSE | 167 0.1 1.0 0.0 12.5 0.00 0.00 42.7 48.8 1.0 0.0
8/31/26 - 0400 44.6 85 40.2 N | 0 0.0 0.0 0.0 12.5 0.00 0.00 43.8 48.8 0.9 0.0
8/31/26 - 0300 46.1 83 41.3 N | 0 0.0 0.0 0.0 12.5 0.00 0.00 45.4 48.8 0.9 0.0
8/31/26 - 0200 47.8 81 42.2 SSE | 168 0.0 0.9 0.0 12.6 0.00 0.00 46.8 48.8 0.9 0.0
8/31/26 - 0100 49.8 77 43.0 SSE | 168 0.0 0.8 0.0 12.6 0.00 0.00 40.6 93.7 11.5 0.0
8/31/26 - 0000 52.2 74 44.2 SSE | 167 0.0 1.0 0.0 12.6 0.00 0.00 40.6 93.7 11.5 0.0
8/30/26 - 2300 55.3 70 45.6 SSE | 168 0.0 0.8 0.0 12.6 0.00 0.00 40.6 93.7 11.5 0.0
8/30/26 - 2200 60.2 61 46.5 SSW | 199 0.1 0.9 0.0 12.7 0.00 0.00 40.6 93.7 11.5 0.0
8/30/26 - 2100 68.3 48 48.0 WSW | 244 0.8 3.8 0.0 12.8 0.00 0.00 40.6 93.7 11.5 0.0
8/30/26 - 2000 77.4 37 49.3 WSW | 257 1.9 8.4 0.0 12.9 0.00 0.00 40.6 93.7 11.5 0.0
8/30/26 - 1900 84.4 31 50.3 W | 271 3.0 11.5 0.0 13.1 0.00 0.00 40.6 93.7 11.5 0.0
8/30/26 - 1800 88.3 29 51.7 WSW | 253 3.7 11.4 0.0 13.0 0.00 0.00 40.6 93.7 11.5 0.0
8/30/26 - 1700 91.7 20 45.0 SE | 140 3.2 11.5 0.0 13.0 0.00 0.00 40.6 93.7 11.5 0.0
8/30/26 - 1600 91.3 17 40.4 E | 86 2.3 8.8 0.0 13.0 0.00 0.00 40.6 92.8 9.5 0.0
8/30/26 - 1500 89.9 16 37.1 SE | 127 1.9 5.9 0.0 13.0 0.00 0.00 40.6 92.5 9.5 0.0
8/30/26 - 1400 88.0 19 40.0 SSE | 158 2.8 9.5 0.0 13.1 0.00 0.00 40.6 90.1 9.5 0.0
8/30/26 - 1300 85.2 25 45.2 SE | 145 2.8 9.2 0.0 13.0 0.00 0.00 40.6 86.7 9.2 0.0
8/30/26 - 1200 81.4 31 48.3 SSE | 148 2.3 8.3 0.0 13.1 0.00 0.00 40.6 83.8 8.3 0.0
8/30/26 - 1100 76.9 38 49.3 SSE | 148 1.9 5.9 0.0 13.1 0.00 0.00 40.6 80.2 5.9 0.0
8/30/26 - 1000 71.5 47 50.3 ESE | 104 1.1 4.6 0.0 13.2 0.00 0.00 40.6 74.8 4.6 0.0
8/30/26 - 0900 61.4 63 48.7 NNE | 29 0.3 2.7 0.0 13.4 0.00 0.00 40.6 67.6 2.7 0.0
8/30/26 - 0800 46.5 88 43.1 SSE | 157 0.0 0.7 0.0 12.9 0.00 0.00 40.6 55.3 1.1 0.0
8/30/26 - 0700 40.9 93 39.0 SSE | 158 0.0 0.7 0.0 12.5 0.00 0.00 40.6 46.7 1.1 0.0
8/30/26 - 0600 41.6 92 39.5 SSE | 158 0.0 0.1 0.0 12.5 0.00 0.00 41.2 46.7 1.1 0.0
8/30/26 - 0500 42.2 91 39.8 SSE | 158 0.0 1.0 0.0 12.5 0.00 0.00 41.7 46.7 1.1 0.0
8/30/26 - 0400 43.3 89 40.3 SSE | 158 0.0 0.9 0.0 12.5 0.00 0.00 42.7 46.7 1.1 0.0
8/30/26 - 0300 44.6 88 41.2 N | 0 0.0 0.0 0.0 12.5 0.00 0.00 44.0 46.7 1.1 0.0
8/30/26 - 0200 46.0 86 42.0 SSE | 158 0.1 1.1 0.0 12.6 0.00 0.00 45.2 46.7 1.1 0.0
8/30/26 - 0100 47.6 82 42.4 SSE | 156 0.0 0.9 0.0 12.6 0.00 0.00 35.9 88.4 16.0 0.0
8/30/26 - 0000 50.0 78 43.2 SSE | 153 0.1 1.1 0.0 12.6 0.00 0.00 35.9 88.4 16.0 0.0
8/29/26 - 2300 53.7 70 44.1 SSE | 154 0.1 1.2 0.0 12.7 0.00 0.00 35.9 88.4 16.0 0.0
8/29/26 - 2200 61.0 57 45.8 WSW | 254 0.5 4.5 0.0 12.7 0.00 0.00 35.9 88.4 16.0 0.0
8/29/26 - 2100 65.5 51 46.7 W | 261 1.3 5.5 0.0 12.8 0.00 0.00 35.9 88.4 16.0 0.0
8/29/26 - 2000 70.9 43 47.3 W | 275 1.9 9.6 0.0 13.0 0.00 0.00 35.9 88.4 16.0 0.0
8/29/26 - 1900 77.6 35 48.0 W | 266 4.5 12.6 0.0 13.2 0.00 0.00 35.9 88.4 16.0 0.0
8/29/26 - 1800 81.1 31 47.9 W | 262 5.6 13.3 0.0 13.1 0.00 0.00 35.9 88.4 16.0 0.0
8/29/26 - 1700 83.8 29 47.8 W | 262 5.3 16.0 0.0 13.1 0.00 0.00 35.9 88.4 16.0 0.0
8/29/26 - 1600 85.9 26 47.6 W | 269 4.2 15.1 0.0 13.0 0.00 0.00 35.9 88.4 15.1 0.0
8/29/26 - 1500 87.0 27 49.1 W | 259 4.1 13.5 0.0 13.0 0.00 0.00 35.9 88.4 13.5 0.0
8/29/26 - 1400 85.6 29 50.0 SSE | 160 2.6 10.7 0.0 13.1 0.00 0.00 35.9 86.8 10.7 0.0
8/29/26 - 1300 83.2 31 49.2 SE | 137 2.6 8.7 0.0 13.1 0.00 0.00 35.9 84.8 8.7 0.0
8/29/26 - 1200 78.9 36 49.7 SE | 143 2.5 6.7 0.0 13.1 0.00 0.00 35.9 81.1 6.9 0.0
8/29/26 - 1100 75.5 40 49.4 SE | 126 2.4 6.9 0.0 13.2 0.00 0.00 35.9 76.6 6.9 0.0
8/29/26 - 1000 70.1 44 47.4 E | 90 1.1 5.3 0.0 13.2 0.00 0.00 35.9 73.5 5.3 0.0
8/29/26 - 0900 59.9 57 44.7 NNW | 330 0.4 2.6 0.0 13.4 0.00 0.00 35.9 66.9 2.6 0.0
8/29/26 - 0800 42.9 82 37.7 NNW | 332 0.0 0.7 0.0 12.9 0.00 0.00 35.9 53.5 1.1 0.0
8/29/26 - 0700 36.0 89 33.2 NNW | 332 0.0 0.9 0.0 12.5 0.00 0.00 35.9 42.0 1.1 0.0
8/29/26 - 0600 36.7 88 33.5 NNW | 333 0.1 1.1 0.0 12.5 0.00 0.00 36.3 42.0 1.1 0.0
8/29/26 - 0500 37.7 87 34.1 NNW | 333 0.0 1.1 0.0 12.5 0.00 0.00 37.0 42.0 1.1 0.0
8/29/26 - 0400 38.8 85 34.6 NNW | 342 0.0 1.0 0.0 12.5 0.00 0.00 38.2 42.0 1.0 0.0
8/29/26 - 0300 39.8 83 35.0 NNW | 337 0.0 0.7 0.0 12.6 0.00 0.00 39.6 42.0 1.0 0.0
8/29/26 - 0200 41.0 81 35.6 N | 352 0.1 1.0 0.0 12.6 0.00 0.00 40.2 42.0 1.0 0.0
8/29/26 - 0100 43.0 77 36.3 N | 0 0.0 0.0 0.0 12.6 0.00 0.00 41.8 88.2 13.4 0.0
8/29/26 - 0000 45.3 74 37.4 N | 0 0.1 1.1 0.0 12.6 0.00 0.00 44.1 88.2 13.4 0.0
8/28/26 - 2300 48.5 69 38.9 N | 0 0.0 0.9 0.0 12.7 0.00 0.00 46.9 88.2 13.4 0.0
8/28/26 - 2200 53.8 59 39.6 W | 276 0.4 1.9 0.0 12.7 0.00 0.00 50.8 88.2 13.4 0.0
8/28/26 - 2100 60.7 42 37.2 SW | 228 0.5 4.1 0.0 12.8 0.00 0.00 50.9 88.2 13.4 0.0
8/28/26 - 2000 73.3 23 33.2 SW | 229 1.8 5.7 0.0 13.0 0.00 0.00 50.9 88.2 13.4 0.0
8/28/26 - 1900 79.5 26 41.9 W | 262 3.1 10.2 0.0 13.2 0.00 0.00 50.9 88.2 13.4 0.0
8/28/26 - 1800 79.5 31 46.5 W | 269 3.4 12.0 0.0 13.2 0.00 0.00 50.9 88.2 13.4 0.0
8/28/26 - 1700 82.2 24 42.1 WNW | 283 2.6 10.2 0.0 13.2 0.00 0.00 50.9 88.2 13.4 0.0
8/28/26 - 1600 83.9 20 38.8 W | 272 3.4 10.4 0.0 13.1 0.00 0.00 50.9 88.2 13.4 0.0
8/28/26 - 1500 85.0 17 34.6 W | 272 3.6 13.4 0.0 13.1 0.00 0.00 50.9 88.2 13.4 0.0
8/28/26 - 1400 82.2 23 40.2 SSE | 157 2.8 10.2 0.0 13.2 0.00 0.00 50.9 83.4 10.2 0.0
8/28/26 - 1300 79.1 25 40.8 S | 185 2.7 7.8 0.0 13.2 0.00 0.00 50.9 83.0 9.4 0.0
8/28/26 - 1200 81.1 21 37.6 SSE | 162 2.8 9.4 0.0 13.2 0.00 0.00 50.9 83.0 9.4 0.0
8/28/26 - 1100 78.9 28 43.3 E | 95 2.5 7.9 0.0 13.2 0.00 0.00 50.9 81.3 7.9 0.0
8/28/26 - 1000 67.4 50 47.7 SW | 230 0.3 2.5 0.0 13.4 0.00 0.00 50.9 74.0 2.5 0.0
8/28/26 - 0900 59.7 60 45.8 SSW | 202 0.2 1.6 0.0 13.2 0.00 0.00 50.9 63.3 1.9 0.0
8/28/26 - 0800 52.3 72 43.7 SW | 219 0.3 1.4 0.0 12.7 0.00 0.00 50.9 60.9 1.9 0.0
8/28/26 - 0700 51.1 72 42.3 SW | 218 0.2 1.3 0.0 12.5 0.00 0.00 50.9 60.9 1.9 0.0
8/28/26 - 0600 51.2 72 42.4 WSW | 244 0.2 1.4 0.0 12.5 0.00 0.00 51.0 60.9 1.9 0.0
8/28/26 - 0500 51.8 71 42.8 NNW | 345 0.0 0.9 0.0 12.5 0.00 0.00 51.3 60.9 1.9 0.0
8/28/26 - 0400 52.7 68 42.3 WNW | 282 0.3 1.8 0.0 12.5 0.00 0.00 52.1 60.9 1.9 0.0
8/28/26 - 0300 54.3 64 42.4 W | 271 0.2 1.9 0.0 12.5 0.00 0.00 53.7 60.9 1.9 0.0
8/28/26 - 0200 57.6 58 43.0 N | 5 0.0 1.1 0.0 12.6 0.00 0.00 55.2 60.9 1.1 0.0
8/28/26 - 0100 64.0 44 41.8 WSW | 246 0.8 5.0 0.0 12.6 0.00 0.00 46.4 95.4 12.6 0.0
8/28/26 - 0000 62.1 42 39.0 WSW | 251 0.9 4.5 0.0 12.6 0.00 0.00 46.4 95.4 12.6 0.0
8/27/26 - 2300 63.6 43 40.7 NW | 315 0.6 3.2 0.0 12.6 0.00 0.00 46.4 95.4 12.6 0.0
8/27/26 - 2200 65.7 45 43.8 WSW | 242 0.5 3.0 0.0 12.7 0.00 0.00 46.4 95.4 12.6 0.0
8/27/26 - 2100 72.5 41 47.6 N | 354 0.7 2.8 0.0 12.8 0.00 0.00 46.4 95.4 12.6 0.0
8/27/26 - 2000 82.2 29 46.4 W | 274 1.4 8.6 0.0 12.9 0.00 0.00 46.4 95.4 12.6 0.0
8/27/26 - 1900 88.0 27 49.5 W | 266 2.7 12.6 0.0 13.1 0.00 0.00 46.4 95.4 12.6 0.0
8/27/26 - 1800 91.8 24 49.7 WNW | 284 2.7 11.1 0.0 13.0 0.00 0.00 46.4 95.4 12.2 0.0
8/27/26 - 1700 94.2 22 48.9 WSW | 257 3.7 11.2 0.0 13.0 0.00 0.00 46.4 95.4 12.2 0.0
8/27/26 - 1600 94.6 21 49.2 WSW | 258 3.4 10.6 0.0 13.0 0.00 0.00 46.4 95.4 12.2 0.0
8/27/26 - 1500 94.4 18 44.5 W | 269 3.4 12.2 0.0 13.0 0.00 0.00 46.4 95.4 12.2 0.0
8/27/26 - 1400 92.7 21 47.0 WSW | 242 3.3 12.2 0.0 13.0 0.00 0.00 46.4 94.0 12.2 0.0
8/27/26 - 1300 91.2 27 52.8 ESE | 113 2.2 6.7 0.0 13.0 0.00 0.00 46.4 93.0 6.7 0.0
8/27/26 - 1200 86.3 35 55.2 S | 172 2.1 5.8 0.0 13.0 0.00 0.00 46.4 88.9 6.4 0.0
8/27/26 - 1100 82.1 41 56.3 SE | 146 2.5 6.4 0.0 13.1 0.00 0.00 46.4 84.3 6.4 0.0
8/27/26 - 1000 77.3 46 54.6 SE | 126 1.5 5.6 0.0 13.2 0.00 0.00 46.4 80.1 5.6 0.0
8/27/26 - 0900 69.0 58 53.7 ENE | 72 0.5 2.5 0.0 13.3 0.00 0.00 46.4 74.3 2.5 0.0
8/27/26 - 0800 52.2 88 48.6 S | 188 0.1 1.3 0.0 12.8 0.00 0.00 46.4 61.5 2.2 0.0
8/27/26 - 0700 46.9 93 45.0 SSW | 210 0.2 1.6 0.0 12.5 0.00 0.00 46.4 50.8 2.2 0.0
8/27/26 - 0600 48.0 92 45.9 SSW | 197 0.4 2.0 0.0 12.5 0.00 0.00 47.4 50.8 2.2 0.0
8/27/26 - 0500 48.7 91 46.3 SSW | 205 0.4 2.0 0.0 12.5 0.00 0.00 48.4 50.8 2.2 0.0
8/27/26 - 0400 48.8 91 46.2 SSW | 204 0.2 1.5 0.0 12.5 0.00 0.00 48.5 50.8 2.2 0.0
8/27/26 - 0300 49.2 90 46.5 SW | 216 0.3 2.2 0.0 12.5 0.00 0.00 49.0 50.8 2.2 0.0
8/27/26 - 0200 50.1 88 46.8 SW | 217 0.3 2.0 0.0 12.6 0.00 0.00 49.6 50.8 2.0 0.0
8/27/26 - 0100 51.9 86 47.7 SE | 141 0.2 1.3 0.0 12.6 0.00 0.00 38.6 96.2 14.7 0.0
8/27/26 - 0000 55.1 81 49.4 SE | 138 0.0 1.3 0.0 12.6 0.00 0.00 38.6 96.2 14.7 0.0
8/26/26 - 2300 59.8 74 51.4 SW | 221 0.6 3.0 0.0 12.6 0.00 0.00 38.6 96.2 14.7 0.0
8/26/26 - 2200 63.3 66 51.8 SW | 218 0.5 4.1 0.0 12.7 0.00 0.00 38.6 96.2 14.7 0.0
8/26/26 - 2100 69.2 57 53.2 SW | 232 0.8 3.7 0.0 12.8 0.00 0.00 38.6 96.2 14.7 0.0
8/26/26 - 2000 76.7 44 52.8 WSW | 255 1.6 6.4 0.0 12.9 0.00 0.00 38.6 96.2 14.7 0.0
8/26/26 - 1900 84.4 27 46.2 W | 267 3.8 13.7 0.0 13.1 0.00 0.00 38.6 96.2 14.7 0.0
8/26/26 - 1800 88.9 22 44.7 W | 268 4.7 14.7 0.0 13.0 0.00 0.00 38.6 96.2 14.7 0.0
8/26/26 - 1700 92.4 19 44.2 W | 266 4.3 13.0 0.0 13.0 0.00 0.00 38.6 96.2 13.0 0.0
8/26/26 - 1600 94.9 18 44.1 W | 271 3.4 11.3 0.0 13.0 0.00 0.00 38.6 96.2 11.3 0.0
8/26/26 - 1500 93.7 19 44.8 ESE | 111 2.3 7.7 0.0 13.0 0.00 0.00 38.6 95.8 8.1 0.0
8/26/26 - 1400 91.6 22 47.2 SE | 139 2.8 8.1 0.0 13.0 0.00 0.00 38.6 93.9 8.1 0.0
8/26/26 - 1300 89.5 24 48.3 ESE | 109 2.7 7.7 0.0 13.0 0.00 0.00 38.6 90.7 7.7 0.0
8/26/26 - 1200 84.9 30 49.6 SE | 145 2.4 6.9 0.0 13.0 0.00 0.00 38.6 87.9 6.9 0.0
8/26/26 - 1100 79.0 35 48.7 SSE | 166 1.9 5.5 0.0 13.1 0.00 0.00 38.6 82.8 5.5 0.0
8/26/26 - 1000 74.2 37 46.2 ESE | 116 1.4 4.7 0.0 13.2 0.00 0.00 38.6 77.2 4.7 0.0
8/26/26 - 0900 61.5 53 44.1 ENE | 57 0.3 2.2 0.0 13.4 0.00 0.00 38.6 69.1 2.2 0.0
8/26/26 - 0800 46.3 82 40.8 SSW | 192 0.2 1.2 0.0 12.9 0.00 0.00 38.6 54.5 1.3 0.0
8/26/26 - 0700 38.9 90 36.2 SSW | 195 0.1 1.2 0.0 12.5 0.00 0.00 38.6 48.5 1.3 0.0
8/26/26 - 0600 39.9 88 36.8 SSW | 195 0.2 1.1 0.0 12.5 0.00 0.00 39.3 48.5 1.3 0.0
8/26/26 - 0500 41.5 86 37.6 SSW | 195 0.1 1.3 0.0 12.5 0.00 0.00 40.4 48.5 1.3 0.0
8/26/26 - 0400 43.3 83 38.5 SSW | 196 0.1 1.1 0.0 12.5 0.00 0.00 42.4 48.5 1.1 0.0
8/26/26 - 0300 45.2 79 39.2 SSW | 196 0.0 0.9 0.0 12.5 0.00 0.00 44.2 48.5 0.9 0.0
8/26/26 - 0200 47.3 77 40.3 SSW | 196 0.0 0.1 0.0 12.6 0.00 0.00 46.0 48.5 0.1 0.0
8/26/26 - 0100 49.6 72 41.0 SSW | 196 0.1 0.9 0.0 12.6 0.00 0.00 43.7 94.0 14.8 0.0
8/26/26 - 0000 53.0 65 41.6 S | 183 0.1 1.8 0.0 12.6 0.00 0.00 43.7 94.0 14.8 0.0
8/25/26 - 2300 58.0 56 42.3 ESE | 121 0.1 1.3 0.0 12.6 0.00 0.00 43.7 94.0 14.8 0.0
8/25/26 - 2200 66.0 44 43.4 NW | 304 0.5 4.4 0.0 12.7 0.00 0.00 43.7 94.0 14.8 0.0
8/25/26 - 2100 70.5 44 47.7 NNW | 329 0.2 2.3 0.0 12.8 0.00 0.00 43.7 94.0 14.8 0.0
8/25/26 - 2000 80.7 35 50.5 W | 265 2.0 8.1 0.0 12.9 0.00 0.00 43.7 94.0 14.8 0.0
8/25/26 - 1900 86.2 31 51.8 SW | 231 4.0 12.1 0.0 13.1 0.00 0.00 43.7 94.0 14.8 0.0
8/25/26 - 1800 90.7 21 45.8 SW | 225 3.8 11.4 0.0 13.0 0.00 0.00 43.7 94.0 14.8 0.0
8/25/26 - 1700 93.1 18 43.5 SW | 215 2.8 9.8 0.0 13.0 0.00 0.00 43.7 94.0 14.8 0.0
8/25/26 - 1600 92.5 17 41.2 SW | 235 3.5 14.8 0.0 13.0 0.00 0.00 43.7 93.9 14.8 0.0
8/25/26 - 1500 91.7 15 37.4 SW | 229 3.3 11.3 0.0 13.0 0.00 0.00 43.7 93.9 11.3 0.0
8/25/26 - 1400 90.2 15 36.6 SSW | 208 3.1 9.8 0.0 13.0 0.00 0.00 43.7 91.9 9.8 0.0
8/25/26 - 1300 86.5 22 43.1 ENE | 65 2.6 8.0 0.0 13.0 0.00 0.00 43.7 88.7 8.0 0.0
8/25/26 - 1200 82.5 29 46.7 ENE | 70 1.9 7.2 0.0 13.1 0.00 0.00 43.7 85.6 7.2 0.0
8/25/26 - 1100 76.1 38 48.6 ESE | 102 0.6 3.6 0.0 13.2 0.00 0.00 43.7 80.0 3.6 0.0
8/25/26 - 1000 71.8 46 50.0 E | 92 0.5 2.6 0.0 13.3 0.00 0.00 43.7 72.6 3.4 0.0
8/25/26 - 0900 65.0 53 47.2 SW | 229 0.6 3.4 0.0 13.3 0.00 0.00 43.7 71.3 3.4 0.0
8/25/26 - 0800 49.2 85 44.7 SSW | 201 0.1 1.2 0.0 12.8 0.00 0.00 43.7 59.1 2.6 0.0
8/25/26 - 0700 43.9 91 41.6 SSW | 203 0.1 0.9 0.0 12.5 0.00 0.00 43.7 50.0 2.6 0.0
8/25/26 - 0600 44.5 90 41.8 SSW | 200 0.2 1.2 0.0 12.5 0.00 0.00 43.9 50.0 2.6 0.0
8/25/26 - 0500 46.0 89 43.0 S | 186 0.3 2.6 0.0 12.5 0.00 0.00 45.2 50.0 2.6 0.0
8/25/26 - 0400 45.8 89 42.9 S | 175 0.2 1.8 0.0 12.5 0.00 0.00 45.4 50.0 1.8 0.0
Max 94.9 93 56.3 - 5.6 16.0 0.0 13.4 0.00 0.00 55.2 96.2 16.0 0.0
Avg 66.1 54 44.8 - 1.5 5.4 0.0 12.8 0.00 - - - - -
Min 36.0 15 33.2 - 0.0 0.0 0.0 12.5 0.00 0.00 35.9 42.0 0.1 0.0
Total - - - - - - - - 0.00 - - - - -